createdAt,value
2023-05-19T00:02:21.740Z,13.90
2023-05-19T00:05:11.475Z,13.40
2023-05-19T00:08:01.207Z,14.20
2023-05-19T00:10:49.568Z,14.10
2023-05-19T00:13:37.623Z,13.80
2023-05-19T00:16:26.618Z,14.70
2023-05-19T00:19:14.437Z,14.10
2023-05-19T00:22:02.657Z,13.30
2023-05-19T00:24:50.885Z,12.90
2023-05-19T00:27:38.951Z,15.00
2023-05-19T00:30:27.014Z,15.60
2023-05-19T00:33:15.011Z,15.30
2023-05-19T00:36:03.924Z,14.50
2023-05-19T00:38:52.545Z,15.40
2023-05-19T00:41:40.759Z,14.40
2023-05-19T00:44:28.893Z,13.10
2023-05-19T00:47:17.193Z,12.80
2023-05-19T00:50:05.672Z,14.10
2023-05-19T00:52:54.448Z,14.00
2023-05-19T00:55:43.025Z,13.60
2023-05-19T00:58:33.000Z,14.90
2023-05-19T01:01:22.017Z,14.90
2023-05-19T01:04:11.564Z,13.70
2023-05-19T01:06:59.805Z,15.00
2023-05-19T01:09:47.998Z,15.70
2023-05-19T01:12:36.419Z,14.60
2023-05-19T01:15:24.551Z,13.50
2023-05-19T01:18:14.495Z,13.60
2023-05-19T01:21:44.644Z,13.30
2023-05-19T01:25:00.597Z,15.00
2023-05-19T01:28:01.063Z,14.10
2023-05-19T01:30:49.980Z,13.90
2023-05-19T01:33:38.109Z,14.90
2023-05-19T01:36:26.214Z,14.50
2023-05-19T01:39:14.212Z,13.20
2023-05-19T01:42:03.790Z,12.50
2023-05-19T01:44:51.920Z,14.20
2023-05-19T01:47:42.723Z,14.80
2023-05-19T01:50:31.095Z,14.50
2023-05-19T01:53:19.356Z,14.90
2023-05-19T01:56:07.899Z,13.90
2023-05-19T01:59:00.702Z,13.60
2023-05-19T02:01:53.678Z,13.10
2023-05-19T02:04:45.294Z,13.70
2023-05-19T02:07:42.709Z,13.20
2023-05-19T02:10:31.460Z,13.50
2023-05-19T02:13:21.609Z,15.10
2023-05-19T02:16:09.739Z,13.70
2023-05-19T02:18:59.668Z,14.00
2023-05-19T02:21:48.039Z,14.60
2023-05-19T02:24:37.829Z,14.70
2023-05-19T02:27:26.600Z,13.60
2023-05-19T02:30:14.685Z,14.30
2023-05-19T02:33:02.847Z,13.90
2023-05-19T02:35:50.842Z,13.50
2023-05-19T02:38:39.064Z,14.20
2023-05-19T02:41:27.055Z,14.30
2023-05-19T02:44:15.555Z,13.30
2023-05-19T02:47:03.681Z,12.90
2023-05-19T02:49:51.826Z,14.10
2023-05-19T02:52:39.893Z,13.00
2023-05-19T02:55:28.189Z,13.20
2023-05-19T02:58:16.241Z,13.10
2023-05-19T03:01:04.559Z,13.40
2023-05-19T03:03:52.786Z,14.10
2023-05-19T03:06:42.550Z,14.40
2023-05-19T03:09:31.393Z,14.50
2023-05-19T03:12:19.522Z,13.80
2023-05-19T03:15:08.776Z,13.90
2023-05-19T03:17:57.336Z,13.20
2023-05-19T03:20:45.661Z,14.80
2023-05-19T03:23:33.830Z,15.10
2023-05-19T03:26:23.245Z,13.40
2023-05-19T03:29:11.631Z,13.70
2023-05-19T03:32:01.891Z,14.40
2023-05-19T03:34:50.139Z,14.70
2023-05-19T03:37:38.513Z,12.80
2023-05-19T03:40:26.645Z,14.50
2023-05-19T03:43:18.763Z,13.20
2023-05-19T03:46:10.839Z,13.80
2023-05-19T03:49:17.768Z,14.20
2023-05-19T03:52:24.521Z,14.90
2023-05-19T03:55:21.558Z,14.50
2023-05-19T03:58:10.932Z,13.30
2023-05-19T04:00:58.561Z,14.10
2023-05-19T04:03:46.901Z,13.40
2023-05-19T04:06:36.497Z,14.40
2023-05-19T04:09:24.557Z,12.30
2023-05-19T04:12:12.836Z,13.50
2023-05-19T04:15:00.899Z,12.10
2023-05-19T04:17:49.278Z,11.40
2023-05-19T04:20:37.455Z,12.10
2023-05-19T04:23:25.590Z,9.30
2023-05-19T04:26:15.279Z,9.20
2023-05-19T04:29:04.822Z,8.80
2023-05-19T04:31:53.104Z,8.40
2023-05-19T04:34:45.414Z,8.60
2023-05-19T04:37:38.593Z,8.70
2023-05-19T04:40:27.024Z,8.10
2023-05-19T04:43:16.130Z,8.50
2023-05-19T04:46:06.602Z,8.50
2023-05-19T04:48:57.363Z,9.80
2023-05-19T04:51:46.166Z,9.30
2023-05-19T04:54:38.556Z,9.20
2023-05-19T04:57:27.146Z,8.60
2023-05-19T05:00:15.913Z,8.60
2023-05-19T05:03:24.662Z,8.70
2023-05-19T05:06:13.049Z,8.10
2023-05-19T05:09:01.397Z,8.60
2023-05-19T05:11:50.139Z,8.00
2023-05-19T05:14:40.450Z,7.70
2023-05-19T05:17:29.587Z,8.50
2023-05-19T05:20:19.748Z,8.60
2023-05-19T05:23:09.814Z,8.10
2023-05-19T05:25:59.021Z,8.50
2023-05-19T05:28:47.300Z,8.40
2023-05-19T05:31:37.142Z,8.60
2023-05-19T05:34:25.490Z,7.80
2023-05-19T05:37:15.317Z,8.10
2023-05-19T05:40:04.917Z,8.00
2023-05-19T05:42:55.599Z,7.60
2023-05-19T05:45:44.042Z,8.00
2023-05-19T05:48:32.516Z,8.60
2023-05-19T05:51:24.786Z,8.00
2023-05-19T05:54:13.900Z,7.90
2023-05-19T05:57:05.753Z,8.40
2023-05-19T05:59:53.792Z,9.10
2023-05-19T06:02:46.823Z,8.00
2023-05-19T06:05:36.742Z,7.80
2023-05-19T06:08:24.888Z,8.50
2023-05-19T06:11:13.001Z,7.80
2023-05-19T06:14:02.080Z,7.90
2023-05-19T06:17:06.828Z,7.60
2023-05-19T06:19:56.314Z,7.80
2023-05-19T06:22:44.159Z,7.90
2023-05-19T06:25:32.916Z,7.70
2023-05-19T06:28:21.355Z,7.50
2023-05-19T06:31:11.054Z,7.70
2023-05-19T06:34:07.065Z,8.10
2023-05-19T06:36:55.632Z,7.70
2023-05-19T06:39:44.143Z,7.20
2023-05-19T06:42:32.312Z,7.50
2023-05-19T06:45:28.410Z,7.00
2023-05-19T06:48:17.440Z,7.60
2023-05-19T06:51:05.697Z,7.10
2023-05-19T06:53:54.005Z,6.80
2023-05-19T06:56:43.220Z,7.20
2023-05-19T06:59:31.708Z,7.70
2023-05-19T07:02:20.522Z,7.70
2023-05-19T07:05:09.526Z,7.50
2023-05-19T07:07:57.958Z,6.80
2023-05-19T07:10:48.094Z,6.90
2023-05-19T07:13:36.419Z,7.60
2023-05-19T07:16:25.621Z,7.40
2023-05-19T07:19:15.331Z,6.80
2023-05-19T07:22:05.086Z,7.50
2023-05-19T07:24:53.131Z,7.70
2023-05-19T07:27:41.380Z,6.80
2023-05-19T07:30:30.015Z,7.20
2023-05-19T07:33:18.133Z,7.00
2023-05-19T07:36:06.395Z,7.40
2023-05-19T07:38:54.543Z,7.80
2023-05-19T07:41:42.715Z,7.30
2023-05-19T07:44:35.007Z,6.90
2023-05-19T07:47:23.025Z,7.30
2023-05-19T07:50:11.193Z,6.70
2023-05-19T07:52:59.305Z,6.70
2023-05-19T07:55:47.477Z,6.70
2023-05-19T07:58:35.583Z,6.50
2023-05-19T08:01:23.624Z,6.80
2023-05-19T08:04:13.268Z,7.40
2023-05-19T08:07:03.751Z,6.60
2023-05-19T08:09:51.538Z,6.10
2023-05-19T08:12:39.700Z,6.90
2023-05-19T08:15:27.913Z,6.90
2023-05-19T08:18:16.071Z,6.90
2023-05-19T08:21:04.327Z,7.10
2023-05-19T08:23:52.520Z,6.30
2023-05-19T08:26:40.858Z,6.80
2023-05-19T08:29:28.976Z,6.50
2023-05-19T08:32:17.691Z,6.10
2023-05-19T08:35:06.069Z,6.20
2023-05-19T08:37:54.341Z,6.50
2023-05-19T08:40:42.508Z,6.60
2023-05-19T08:43:30.492Z,7.30
2023-05-19T08:46:18.713Z,6.10
2023-05-19T08:49:12.574Z,7.00
2023-05-19T08:52:15.439Z,6.70
2023-05-19T08:55:09.798Z,7.60
2023-05-19T08:57:58.070Z,6.60
2023-05-19T09:00:46.778Z,6.00
2023-05-19T09:03:38.519Z,6.60
2023-05-19T09:06:26.873Z,7.30
2023-05-19T09:09:15.874Z,6.60
2023-05-19T09:12:06.916Z,7.10
2023-05-19T09:14:55.998Z,7.10
2023-05-19T09:17:44.983Z,6.90
2023-05-19T09:20:33.231Z,6.40
2023-05-19T09:23:21.282Z,6.30
2023-05-19T09:26:09.385Z,6.70
2023-05-19T09:28:58.460Z,7.00
2023-05-19T09:31:56.210Z,6.50
2023-05-19T09:34:44.014Z,7.00
2023-05-19T09:37:32.550Z,6.60
2023-05-19T09:40:20.616Z,7.20
2023-05-19T09:43:08.806Z,7.00
2023-05-19T09:46:07.007Z,6.80
2023-05-19T09:49:23.746Z,6.80
2023-05-19T09:52:38.799Z,7.00
2023-05-19T09:55:54.849Z,6.90
2023-05-19T09:59:10.126Z,6.50
2023-05-19T10:02:24.580Z,6.60
2023-05-19T10:05:44.239Z,6.20
2023-05-19T10:08:59.759Z,6.20
2023-05-19T10:12:15.082Z,6.30
2023-05-19T10:15:28.590Z,6.30
2023-05-19T10:18:43.397Z,6.40
2023-05-19T10:21:56.930Z,6.40
2023-05-19T10:25:12.107Z,6.30
2023-05-19T10:28:37.440Z,6.10
2023-05-19T10:31:52.236Z,6.30
2023-05-19T10:35:18.604Z,6.00
2023-05-19T10:38:38.187Z,6.10
2023-05-19T10:41:59.563Z,5.90
2023-05-19T10:45:26.884Z,5.20
2023-05-19T10:48:41.685Z,6.00
2023-05-19T10:52:00.128Z,6.20
2023-05-19T10:55:13.831Z,6.10
2023-05-19T10:58:28.961Z,5.50
2023-05-19T11:01:45.499Z,6.30
2023-05-19T11:04:51.170Z,5.60
2023-05-19T11:07:42.613Z,4.80
2023-05-19T11:10:30.605Z,6.00
2023-05-19T11:13:23.164Z,5.30
2023-05-19T11:16:11.657Z,5.20
2023-05-19T11:18:59.740Z,6.10
2023-05-19T11:21:49.418Z,5.00
2023-05-19T11:24:40.684Z,5.60
2023-05-19T11:27:32.991Z,5.40
2023-05-19T11:30:21.012Z,4.70
2023-05-19T11:33:09.094Z,5.50
2023-05-19T11:36:00.011Z,5.60
2023-05-19T11:38:48.085Z,4.90
2023-05-19T11:41:40.065Z,5.20
2023-05-19T11:44:27.663Z,5.50
2023-05-19T11:47:16.247Z,5.40
2023-05-19T11:50:04.506Z,5.70
2023-05-19T11:52:53.378Z,5.30
2023-05-19T11:55:48.402Z,5.50
2023-05-19T11:58:37.593Z,5.30
2023-05-19T12:01:28.743Z,5.10
2023-05-19T12:04:16.911Z,5.80
2023-05-19T12:07:05.387Z,5.80
2023-05-19T12:09:53.799Z,5.70
2023-05-19T12:12:42.760Z,5.80
2023-05-19T12:15:31.820Z,5.60
2023-05-19T12:18:20.300Z,5.80
2023-05-19T12:21:08.502Z,5.50
2023-05-19T12:23:56.535Z,5.40
2023-05-19T12:26:44.733Z,4.90
2023-05-19T12:29:32.912Z,5.20
2023-05-19T12:32:28.993Z,5.80
2023-05-19T12:35:17.122Z,5.20
2023-05-19T12:38:05.671Z,5.00
2023-05-19T12:40:53.822Z,5.10
2023-05-19T12:43:41.967Z,5.40
2023-05-19T12:46:30.141Z,6.20
2023-05-19T12:49:18.428Z,5.40
2023-05-19T12:52:11.898Z,5.60
2023-05-19T12:55:11.470Z,5.20
2023-05-19T12:57:59.567Z,5.40
2023-05-19T13:00:50.071Z,5.20
2023-05-19T13:03:44.268Z,5.00
2023-05-19T13:06:33.907Z,5.10
2023-05-19T13:09:22.027Z,4.70
2023-05-19T13:12:10.042Z,5.30
2023-05-19T13:15:00.262Z,5.40
2023-05-19T13:17:48.459Z,5.40
2023-05-19T13:20:37.470Z,5.00
2023-05-19T13:23:26.562Z,5.00
2023-05-19T13:26:14.820Z,4.90
2023-05-19T13:29:03.400Z,4.20
2023-05-19T13:31:51.500Z,4.40
2023-05-19T13:34:39.670Z,3.90
2023-05-19T13:37:28.456Z,3.90
2023-05-19T13:40:17.201Z,4.80
2023-05-19T13:43:06.255Z,5.20
2023-05-19T13:45:54.493Z,5.20
2023-05-19T13:48:42.498Z,5.10
2023-05-19T13:51:30.653Z,6.00
2023-05-19T13:54:18.753Z,5.30
2023-05-19T13:57:06.472Z,5.60
2023-05-19T14:00:06.053Z,5.00
2023-05-19T14:03:00.990Z,5.30
2023-05-19T14:05:49.131Z,5.10
2023-05-19T14:08:37.185Z,5.40
2023-05-19T14:11:25.256Z,5.10
2023-05-19T14:14:13.537Z,4.70
2023-05-19T14:17:01.695Z,5.20
2023-05-19T14:19:49.770Z,4.00
2023-05-19T14:22:37.911Z,4.60
2023-05-19T14:25:25.987Z,4.20
2023-05-19T14:28:14.244Z,4.00
2023-05-19T14:31:02.392Z,3.80
2023-05-19T14:33:51.030Z,4.90
2023-05-19T14:36:39.050Z,4.40
2023-05-19T14:39:27.102Z,4.70
2023-05-19T14:42:15.297Z,4.50
2023-05-19T14:45:03.687Z,4.40
2023-05-19T14:47:52.908Z,4.50
2023-05-19T14:50:41.068Z,5.10
2023-05-19T14:53:29.281Z,5.10
2023-05-19T14:56:17.276Z,4.40
2023-05-19T14:59:05.355Z,4.50
2023-05-19T15:01:53.470Z,4.50
2023-05-19T15:04:41.602Z,4.70
2023-05-19T15:07:29.616Z,4.40
2023-05-19T15:10:20.680Z,4.40
2023-05-19T15:13:08.796Z,4.30
2023-05-19T15:16:12.459Z,4.70
2023-05-19T15:19:04.221Z,5.00
2023-05-19T15:21:52.361Z,4.30
2023-05-19T15:24:41.404Z,4.10
2023-05-19T15:27:29.640Z,4.10
2023-05-19T15:30:18.073Z,4.20
2023-05-19T15:33:06.367Z,4.40
2023-05-19T15:35:54.637Z,4.40
2023-05-19T15:38:42.856Z,4.60
2023-05-19T15:41:30.879Z,4.50
2023-05-19T15:44:19.258Z,4.20
2023-05-19T15:47:07.376Z,4.10
2023-05-19T15:49:55.693Z,4.40
2023-05-19T15:52:43.751Z,4.50
2023-05-19T15:55:31.882Z,4.40
2023-05-19T15:58:20.041Z,4.70
2023-05-19T16:01:08.322Z,4.50
2023-05-19T16:03:56.529Z,5.00
2023-05-19T16:06:45.014Z,4.80
2023-05-19T16:09:33.147Z,4.20
2023-05-19T16:12:21.203Z,4.30
2023-05-19T16:15:09.742Z,4.20
2023-05-19T16:17:58.058Z,4.20
2023-05-19T16:20:46.258Z,4.10
2023-05-19T16:23:34.354Z,3.70
2023-05-19T16:26:22.973Z,3.90
2023-05-19T16:29:11.093Z,4.80
2023-05-19T16:31:59.249Z,4.00
2023-05-19T16:34:47.403Z,4.60
2023-05-19T16:37:35.568Z,4.30
2023-05-19T16:40:23.775Z,4.30
2023-05-19T16:43:11.844Z,4.60
2023-05-19T16:46:00.070Z,4.40
2023-05-19T16:48:48.146Z,5.10
2023-05-19T16:51:36.386Z,5.30
2023-05-19T16:54:24.865Z,5.00
2023-05-19T16:57:15.027Z,4.20
2023-05-19T17:00:03.984Z,4.60
2023-05-19T17:02:52.327Z,4.90
2023-05-19T17:05:42.069Z,4.20
2023-05-19T17:08:30.115Z,5.40
2023-05-19T17:11:18.224Z,5.30
2023-05-19T17:14:09.483Z,4.70
2023-05-19T17:16:57.629Z,5.20
2023-05-19T17:19:46.164Z,5.80
2023-05-19T17:22:34.288Z,6.80
2023-05-19T17:25:22.409Z,6.70
2023-05-19T17:28:10.590Z,6.90
2023-05-19T17:30:58.768Z,6.20
2023-05-19T17:33:46.949Z,6.10
2023-05-19T17:36:35.106Z,6.30
2023-05-19T17:39:24.603Z,6.80
2023-05-19T17:42:12.714Z,6.50
2023-05-19T17:45:00.731Z,6.20
2023-05-19T17:48:14.585Z,5.90
2023-05-19T17:51:30.114Z,5.60
2023-05-19T17:54:43.224Z,5.90
2023-05-19T17:57:59.014Z,5.50
2023-05-19T18:01:12.553Z,4.60
2023-05-19T18:04:27.756Z,5.10
2023-05-19T18:07:41.214Z,5.20
2023-05-19T18:10:56.067Z,5.30
2023-05-19T18:14:09.609Z,5.40
2023-05-19T18:17:24.768Z,6.90
2023-05-19T18:20:38.319Z,5.90
2023-05-19T18:23:53.146Z,5.40
2023-05-19T18:27:06.089Z,4.90
2023-05-19T18:33:35.527Z,5.30
2023-05-19T18:36:51.052Z,5.40
2023-05-19T18:40:04.880Z,6.00
2023-05-19T18:43:20.404Z,6.00
2023-05-19T18:46:33.645Z,5.40
2023-05-19T18:49:50.420Z,5.80
2023-05-19T18:53:03.494Z,5.90
2023-05-19T18:56:19.007Z,6.70
2023-05-19T18:59:32.524Z,6.40
2023-05-19T19:02:47.546Z,5.90
2023-05-19T19:06:00.434Z,5.70
2023-05-19T19:09:15.294Z,6.30
2023-05-19T19:12:28.779Z,6.70
2023-05-19T19:15:35.514Z,7.20
2023-05-19T19:18:48.894Z,7.10
2023-05-19T19:22:02.701Z,7.20
2023-05-19T19:25:16.781Z,6.00
2023-05-19T19:28:31.952Z,5.40
2023-05-19T19:31:45.740Z,5.10
2023-05-19T19:35:01.021Z,5.30
2023-05-19T19:38:17.155Z,5.20
2023-05-19T19:41:32.572Z,5.10
2023-05-19T19:44:46.599Z,5.00
2023-05-19T19:48:02.218Z,4.70
2023-05-19T19:51:22.419Z,5.50
2023-05-19T19:54:37.296Z,5.30
2023-05-19T19:57:50.373Z,5.00
2023-05-19T20:46:41.558Z,5.50
2023-05-19T20:49:57.230Z,5.30
2023-05-19T20:53:10.450Z,5.40
2023-05-19T20:56:25.311Z,5.30
2023-05-19T20:59:38.586Z,5.40
2023-05-19T21:02:54.249Z,5.60
2023-05-19T21:06:07.730Z,5.50
2023-05-19T21:09:22.827Z,5.80
2023-05-19T21:12:35.444Z,4.80
2023-05-19T21:15:50.465Z,5.20
2023-05-19T21:19:03.919Z,5.20
2023-05-19T21:22:19.176Z,5.90
2023-05-19T21:25:32.976Z,5.30
2023-05-19T21:28:48.237Z,5.70
2023-05-19T21:32:01.974Z,5.20
2023-05-19T21:35:17.195Z,5.90
2023-05-19T21:38:31.608Z,5.40
2023-05-19T21:41:46.549Z,5.70
2023-05-19T21:44:59.637Z,5.50
2023-05-19T21:51:28.968Z,5.80
2023-05-19T21:54:45.649Z,7.10
2023-05-19T21:58:44.823Z,6.10
2023-05-19T22:02:46.447Z,6.00
2023-05-19T22:06:46.979Z,5.80
2023-05-19T22:10:48.782Z,6.20
2023-05-19T22:14:47.939Z,6.20
2023-05-19T22:18:49.304Z,6.10
2023-05-19T22:22:48.098Z,6.80
2023-05-19T22:26:49.780Z,6.00
2023-05-19T22:30:46.967Z,6.40
2023-05-19T22:34:48.449Z,6.00
2023-05-19T22:38:46.928Z,5.90
2023-05-19T22:42:48.267Z,6.10
2023-05-19T22:46:47.005Z,6.70
2023-05-19T22:50:48.471Z,6.80
2023-05-19T22:54:46.000Z,6.90
2023-05-19T22:58:47.462Z,6.40
2023-05-19T23:02:46.185Z,6.80
2023-05-19T23:06:47.423Z,6.90
2023-05-19T23:10:46.039Z,6.70
2023-05-19T23:14:47.369Z,6.70
2023-05-19T23:18:45.952Z,6.40
2023-05-19T23:22:47.553Z,6.50
2023-05-19T23:26:46.893Z,7.50
2023-05-19T23:30:48.671Z,6.60
2023-05-19T23:34:47.044Z,6.80
2023-05-19T23:38:48.398Z,7.30
2023-05-19T23:42:47.158Z,6.40
2023-05-19T23:46:48.465Z,7.40
2023-05-19T23:50:46.099Z,6.70
2023-05-19T23:54:46.514Z,7.00
2023-05-19T23:58:44.379Z,7.50
